PWSweather.com
Personal Weather Stations
Station Observations
AS787
Cloppers Mill East, Germantown, MD 20874-2154

Cloppers Mill EastGermantown, MD 20874-2154

Lat: 39.1522, Lon: -77.2679

Elevation: 318

Station Type: 1-Wire

http://www.cloppermillweather.org/

High Low Average
Temperature 35.5°F1.9°C 9.3°F-12.6°C 24.0°F-4.4°C
Dew Point 11.3°F-11.5°C 5.9°F-14.5°C 8.2°F-13.2°C
Winds 3.7 mph 6.0 kmh Calm Calm 1.0 mph SW1.6 kmh SW
Wind Gusts 10.0 mph16.1 kmh -- 3.0 mph4.8 kmh
Humidity 89% 33% 54%
Pressure 30.49 in1032.5 mb 30.28 in1025.4 mb -
Precipitation 0.00 in0.0 mm - -
Hour Temp Dew Point Humidity Winds Wind Gusts Pressure Precip Precip Rate Daily Precip Total
12:14 AM 18.7°F-7.4°C 5.4°F-14.8°C 56% 2.0 mph SE3.2 kmh SE 6.0 mph9.7 kmh 30.42 in1030.1 mb 0.00 in0.0 mm 0.00 in0.0 mm 0.00 in0.0 mm
12:44 AM 18.3°F-7.6°C 5.7°F-14.6°C 58% 0.4 mph SSE0.6 kmh SSE 4.0 mph6.4 kmh 30.42 in1030.1 mb 0.00 in0.0 mm 0.00 in0.0 mm 0.00 in0.0 mm
01:14 AM 18.2°F-7.7°C 5.9°F-14.5°C 58% 0.2 mph NE0.3 kmh NE 1.0 mph1.6 kmh 30.43 in1030.5 mb 0.00 in0.0 mm 0.00 in0.0 mm 0.00 in0.0 mm
01:44 AM 17.1°F-8.3°C 5.9°F-14.5°C 61% Calm Calm 1.0 mph1.6 kmh 30.43 in1030.5 mb 0.00 in0.0 mm 0.00 in0.0 mm 0.00 in0.0 mm
02:14 AM 16.4°F-8.7°C 5.9°F-14.5°C 63% Calm Calm -- 30.44 in1030.8 mb 0.00 in0.0 mm 0.00 in0.0 mm 0.00 in0.0 mm
02:44 AM 15.5°F-9.2°C 6.1°F-14.4°C 66% Calm Calm -- 30.44 in1030.8 mb 0.00 in0.0 mm 0.00 in0.0 mm 0.00 in0.0 mm
03:14 AM 14.6°F-9.7°C 6.2°F-14.3°C 69% Calm Calm -- 30.45 in1031.2 mb 0.00 in0.0 mm 0.00 in0.0 mm 0.00 in0.0 mm
03:44 AM 13.2°F-10.4°C 6.2°F-14.3°C 73% Calm Calm -- 30.44 in1030.8 mb 0.00 in0.0 mm 0.00 in0.0 mm 0.00 in0.0 mm
04:14 AM 12.3°F-10.9°C 6.4°F-14.2°C 77% Calm Calm -- 30.45 in1031.2 mb 0.00 in0.0 mm 0.00 in0.0 mm 0.00 in0.0 mm
04:44 AM 11.6°F-11.3°C 6.3°F-14.3°C 79% Calm Calm -- 30.45 in1031.2 mb 0.00 in0.0 mm 0.00 in0.0 mm 0.00 in0.0 mm
05:14 AM 11.1°F-11.6°C 6.4°F-14.2°C 81% Calm Calm -- 30.45 in1031.2 mb 0.00 in0.0 mm 0.00 in0.0 mm 0.00 in0.0 mm
05:44 AM 10.6°F-11.9°C 6.4°F-14.2°C 83% Calm Calm -- 30.45 in1031.2 mb 0.00 in0.0 mm 0.00 in0.0 mm 0.00 in0.0 mm
06:14 AM 10.2°F-12.1°C 6.3°F-14.3°C 84% Calm Calm -- 30.45 in1031.2 mb 0.00 in0.0 mm 0.00 in0.0 mm 0.00 in0.0 mm
06:44 AM 9.9°F-12.3°C 6.2°F-14.3°C 85% Calm Calm -- 30.46 in1031.5 mb 0.00 in0.0 mm 0.00 in0.0 mm 0.00 in0.0 mm
07:14 AM 9.6°F-12.4°C 6.2°F-14.3°C 86% Calm Calm -- 30.47 in1031.8 mb 0.00 in0.0 mm 0.00 in0.0 mm 0.00 in0.0 mm
07:44 AM 9.3°F-12.6°C 6.0°F-14.4°C 86% Calm Calm -- 30.48 in1032.2 mb 0.00 in0.0 mm 0.00 in0.0 mm 0.00 in0.0 mm
08:14 AM 9.3°F-12.6°C 6.2°F-14.3°C 87% Calm Calm -- 30.48 in1032.2 mb 0.00 in0.0 mm 0.00 in0.0 mm 0.00 in0.0 mm
08:44 AM 9.4°F-12.6°C 6.6°F-14.1°C 88% Calm Calm -- 30.48 in1032.2 mb 0.00 in0.0 mm 0.00 in0.0 mm 0.00 in0.0 mm
09:14 AM 10.9°F-11.7°C 8.3°F-13.2°C 89% 0.0 mph SW0.0 kmh SW 1.0 mph1.6 kmh 30.48 in1032.2 mb 0.00 in0.0 mm 0.00 in0.0 mm 0.00 in0.0 mm
09:44 AM 15.5°F-9.2°C 9.9°F-12.3°C 78% 0.2 mph SW0.3 kmh SW 3.0 mph4.8 kmh 30.49 in1032.5 mb 0.00 in0.0 mm 0.00 in0.0 mm 0.00 in0.0 mm
10:14 AM 18.8°F-7.3°C 9.2°F-12.7°C 66% 0.3 mph SW0.5 kmh SW 5.0 mph8.0 kmh 30.48 in1032.2 mb 0.00 in0.0 mm 0.00 in0.0 mm 0.00 in0.0 mm
10:44 AM 21.0°F-6.1°C 8.6°F-13.0°C 58% 3.1 mph SSW5.0 kmh SSW 7.0 mph11.3 kmh 30.48 in1032.2 mb 0.00 in0.0 mm 0.00 in0.0 mm 0.00 in0.0 mm
11:14 AM 23.3°F-4.8°C 8.0°F-13.3°C 52% 2.4 mph SW3.9 kmh SW 8.0 mph12.9 kmh 30.48 in1032.2 mb 0.00 in0.0 mm 0.00 in0.0 mm 0.00 in0.0 mm
11:44 AM 25.2°F-3.8°C 7.7°F-13.5°C 47% 2.2 mph SW3.5 kmh SW 6.0 mph9.7 kmh 30.48 in1032.2 mb 0.00 in0.0 mm 0.00 in0.0 mm 0.00 in0.0 mm
12:14 PM 26.4°F-3.1°C 7.5°F-13.6°C 44% 3.7 mph SW6.0 kmh SW 10.0 mph16.1 kmh 30.47 in1031.8 mb 0.00 in0.0 mm 0.00 in0.0 mm 0.00 in0.0 mm
12:44 PM 28.0°F-2.2°C 8.5°F-13.1°C 43% 1.4 mph SW2.3 kmh SW 4.0 mph6.4 kmh 30.45 in1031.2 mb 0.00 in0.0 mm 0.00 in0.0 mm 0.00 in0.0 mm
01:14 PM 29.8°F-1.2°C 8.2°F-13.2°C 40% 3.0 mph SW4.8 kmh SW 6.0 mph9.7 kmh 30.43 in1030.5 mb 0.00 in0.0 mm 0.00 in0.0 mm 0.00 in0.0 mm
01:44 PM 30.9°F-0.6°C 8.7°F-12.9°C 39% 2.7 mph SW4.3 kmh SW 9.0 mph14.5 kmh 30.41 in1029.8 mb 0.00 in0.0 mm 0.00 in0.0 mm 0.00 in0.0 mm
02:14 PM 32.3°F0.2°C 8.3°F-13.2°C 36% 0.9 mph SSW1.4 kmh SSW 8.0 mph12.9 kmh 30.39 in1029.1 mb 0.00 in0.0 mm 0.00 in0.0 mm 0.00 in0.0 mm
02:44 PM 33.3°F0.7°C 8.9°F-12.8°C 36% 3.3 mph SSW5.3 kmh SSW 6.0 mph9.7 kmh 30.38 in1028.8 mb 0.00 in0.0 mm 0.00 in0.0 mm 0.00 in0.0 mm
03:14 PM 33.5°F0.8°C 8.5°F-13.1°C 35% 2.1 mph WSW3.4 kmh WSW 9.0 mph14.5 kmh 30.36 in1028.1 mb 0.00 in0.0 mm 0.00 in0.0 mm 0.00 in0.0 mm
03:44 PM 34.7°F1.5°C 9.7°F-12.4°C 35% 1.9 mph WSW3.1 kmh WSW 5.0 mph8.0 kmh 30.35 in1027.8 mb 0.00 in0.0 mm 0.00 in0.0 mm 0.00 in0.0 mm
04:14 PM 35.1°F1.7°C 9.9°F-12.3°C 35% 1.7 mph SW2.7 kmh SW 7.0 mph11.3 kmh 30.34 in1027.4 mb 0.00 in0.0 mm 0.00 in0.0 mm 0.00 in0.0 mm
04:44 PM 35.5°F1.9°C 9.1°F-12.7°C 33% 2.4 mph SW3.9 kmh SW 6.0 mph9.7 kmh 30.34 in1027.4 mb 0.00 in0.0 mm 0.00 in0.0 mm 0.00 in0.0 mm
05:14 PM 33.8°F1.0°C 8.4°F-13.1°C 34% 3.0 mph SW4.8 kmh SW 8.0 mph12.9 kmh 30.34 in1027.4 mb 0.00 in0.0 mm 0.00 in0.0 mm 0.00 in0.0 mm
05:44 PM 34.7°F1.5°C 8.7°F-12.9°C 33% 1.3 mph SW2.1 kmh SW 5.0 mph8.0 kmh 30.34 in1027.4 mb 0.00 in0.0 mm 0.00 in0.0 mm 0.00 in0.0 mm
06:14 PM 33.0°F0.6°C 8.0°F-13.3°C 35% 0.4 mph SW0.6 kmh SW 1.0 mph1.6 kmh 30.34 in1027.4 mb 0.00 in0.0 mm 0.00 in0.0 mm 0.00 in0.0 mm
06:44 PM 32.5°F0.3°C 8.3°F-13.2°C 36% 0.3 mph SW0.5 kmh SW 2.0 mph3.2 kmh 30.34 in1027.4 mb 0.00 in0.0 mm 0.00 in0.0 mm 0.00 in0.0 mm
07:14 PM 32.4°F0.2°C 8.3°F-13.2°C 36% 0.2 mph WSW0.3 kmh WSW 4.0 mph6.4 kmh 30.33 in1027.1 mb 0.00 in0.0 mm 0.00 in0.0 mm 0.00 in0.0 mm
07:44 PM 31.9°F-0.1°C 8.8°F-12.9°C 38% Calm Calm -- 30.34 in1027.4 mb 0.00 in0.0 mm 0.00 in0.0 mm 0.00 in0.0 mm
08:14 PM 31.1°F-0.5°C 9.5°F-12.5°C 40% Calm Calm -- 30.33 in1027.1 mb 0.00 in0.0 mm 0.00 in0.0 mm 0.00 in0.0 mm
08:44 PM 30.9°F-0.6°C 9.9°F-12.3°C 41% 0.8 mph WSW1.3 kmh WSW 2.0 mph3.2 kmh 30.33 in1027.1 mb 0.00 in0.0 mm 0.00 in0.0 mm 0.00 in0.0 mm
09:14 PM 31.0°F-0.6°C 10.6°F-11.9°C 42% 0.0 mph WSW0.0 kmh WSW 3.0 mph4.8 kmh 30.32 in1026.8 mb 0.00 in0.0 mm 0.00 in0.0 mm 0.00 in0.0 mm
09:44 PM 31.8°F-0.1°C 10.8°F-11.8°C 41% 1.4 mph SW2.3 kmh SW 5.0 mph8.0 kmh 30.32 in1026.8 mb 0.00 in0.0 mm 0.00 in0.0 mm 0.00 in0.0 mm
10:14 PM 32.1°F0.1°C 11.3°F-11.5°C 42% 1.1 mph SW1.8 kmh SW 5.0 mph8.0 kmh 30.31 in1026.4 mb 0.00 in0.0 mm 0.00 in0.0 mm 0.00 in0.0 mm
10:44 PM 32.4°F0.2°C 11.2°F-11.6°C 41% 1.4 mph SW2.3 kmh SW 5.0 mph8.0 kmh 30.31 in1026.4 mb 0.00 in0.0 mm 0.00 in0.0 mm 0.00 in0.0 mm
11:14 PM 32.7°F0.4°C 11.0°F-11.7°C 40% 2.3 mph SW3.7 kmh SW 7.0 mph11.3 kmh 30.30 in1026.1 mb 0.00 in0.0 mm 0.00 in0.0 mm 0.00 in0.0 mm
11:44 PM 33.0°F0.6°C 10.6°F-11.9°C 39% 1.8 mph SW2.9 kmh SW 6.0 mph9.7 kmh 30.30 in1026.1 mb 0.00 in0.0 mm 0.00 in0.0 mm 0.00 in0.0 mm